Flight Track Log - Related Links

Times and Time Zones

All times are in EDT time to prevent confusion due to time zone crossing. See the UAL330 flight status page for this flight to view local times or setup timezone preferences in your user account.

Time Position Orientation Groundspeed Altitude Reporting Facility
EDT Latitude Longitude Course Direction KTS MPH feet Rate Location/Type
Tue 06:09:15 PM 41.9843 -87.8671 180° South  Level FlightAware Approximate
Tue 06:10:15 PM 42.0000 -87.7130 234° Southwest  Level FlightAware Approximate
Tue 06:11:11 PM 41.9167 -87.8667 86° East 176 203 3,100  Level Chicago TRACON
Tue 06:13:40 PM 41.9272 -87.6447 67° East 272 313 6,400 1,751 Climbing Chicago Center
Tue 06:14:40 PM 41.9589 -87.5461 66° East 272 313 9,200 2,000 Climbing Chicago Center
Tue 06:15:40 PM 41.9967 -87.4303 67° East 301 346 10,400 1,650 Climbing Chicago Center
Tue 06:16:40 PM 42.0383 -87.2978 66° East 346 398 12,500 2,950 Climbing Chicago Center
Tue 06:17:40 PM 42.0836 -87.1619 71° East 383 441 16,300 3,500 Climbing Chicago Center
Tue 06:18:40 PM 42.1147 -87.0406 87° East 368 423 19,500 2,350 Climbing Chicago Center
Tue 06:19:40 PM 42.1200 -86.9031 87° East 354 407 21,000 1,400 Climbing Chicago Center
Tue 06:20:40 PM 42.1253 -86.7603 88° East 366 421 22,300 900 Climbing Chicago Center
Tue 06:21:40 PM 42.1283 -86.6172 88° East 388 447 22,800 1,000 Climbing Chicago Center
Tue 06:22:40 PM 42.1325 -86.4492 86° East 425 489 24,300 1,400 Climbing Chicago Center
Tue 06:23:40 PM 42.1406 -86.2778 88° East 444 511 25,600 1,250 Climbing Chicago Center
Tue 06:24:40 PM 42.1439 -86.1011 90° East 460 529 26,800 1,200 Climbing Chicago Center
Tue 06:25:40 PM 42.1431 -85.9219 91° East 466 536 28,000 1,100 Climbing Chicago Center
Tue 06:26:40 PM 42.1417 -85.7428 91° East 477 549 29,000 1,181 Climbing Chicago Center
Tue 06:28:48 PM 42.1350 -85.3244 91° East 489 563 31,700 1,245 Climbing Cleveland Center
Tue 06:29:48 PM 42.1319 -85.1419 92° East 489 563 32,900 900 Climbing Cleveland Center
Tue 06:30:48 PM 42.1275 -84.9933 91° East 489 563 33,500 700 Climbing Cleveland Center
Tue 06:31:48 PM 42.1247 -84.7914 96° East 495 570 34,300 800 Climbing Cleveland Center
Tue 06:32:48 PM 42.1106 -84.6056 94° East 502 578 35,100 800 Climbing Cleveland Center
Tue 06:33:48 PM 42.1000 -84.4203 94° East 502 578 35,900 800 Climbing Cleveland Center
Tue 06:34:48 PM 42.0894 -84.2319 95° East 502 578 36,700 500 Climbing Cleveland Center
Tue 06:35:48 PM 42.0769 -84.0300 95° East 497 572 36,900 100 Climbing Cleveland Center
Tue 06:36:48 PM 42.0658 -83.8447 96° East 497 572 36,900  Level Cleveland Center
Tue 06:37:48 PM 42.0522 -83.6567 94° East 502 578 36,900 50 Level Cleveland Center
Tue 06:38:48 PM 42.0425 -83.4686 95° East 502 578 37,000 50 Climbing Cleveland Center
Tue 06:39:48 PM 42.0286 -83.2722 96° East 513 590 37,000 -50 Level Cleveland Center
Tue 06:40:48 PM 42.0142 -83.0789 96° East 520 598 36,900 -50 Descending Cleveland Center
Tue 06:41:48 PM 41.9994 -82.8856 96° East 520 598 36,900  Level Cleveland Center
Tue 06:42:48 PM 41.9844 -82.6894 95° East 525 604 36,900  Level Cleveland Center
Tue 06:43:48 PM 41.9711 -82.4989 97° East 519 597 36,900  Level Cleveland Center
Tue 06:44:48 PM 41.9533 -82.3058 95° East 520 598 36,900  Level Cleveland Center
Tue 06:45:48 PM 41.9431 -82.1547 96° East 514 592 36,900 50 Level Cleveland Center
Tue 06:46:48 PM 41.9269 -81.9339 97° East 514 592 37,000 50 Climbing Cleveland Center
Tue 06:47:48 PM 41.9103 -81.7467 97° East 503 579 37,000 -50 Level Cleveland Center
Tue 06:48:48 PM 41.8933 -81.5594 97° East 503 579 36,900  Descending Cleveland Center
Tue 06:49:48 PM 41.8758 -81.3722 97° East 503 579 37,000 50 Climbing Cleveland Center
Tue 06:50:48 PM 41.8603 -81.1908 97° East 497 572 37,000  Level Cleveland Center
Tue 06:51:48 PM 41.8425 -81.0039 97° East 500 575 37,000  Level Cleveland Center
Tue 06:52:48 PM 41.8242 -80.8144 98° East 505 581 37,000  Level Cleveland Center
Tue 06:53:48 PM 41.8058 -80.6472 98° East 505 581 37,000  Level Cleveland Center
Tue 06:54:48 PM 41.7869 -80.4578 98° East 505 581 37,000  Level Cleveland Center
Tue 06:55:48 PM 41.7678 -80.2686 97° East 505 581 37,000  Level Cleveland Center
Tue 06:56:48 PM 41.7506 -80.0822 98° East 505 581 37,000  Level Cleveland Center
Tue 06:57:48 PM 41.7308 -79.8931 98° East 505 581 37,000  Level Cleveland Center
Tue 06:58:48 PM 41.7083 -79.6903 97° East 505 581 37,000  Level Cleveland Center
Tue 06:59:48 PM 41.6925 -79.5236 98° East 505 581 37,000  Level Cleveland Center
Tue 07:00:48 PM 41.6717 -79.3350 98° East 505 581 37,000  Level Cleveland Center
Tue 07:01:48 PM 41.6508 -79.1492 98° East 505 581 37,000  Level Cleveland Center
Tue 07:02:48 PM 41.6297 -78.9608 99° East 505 581 37,000  Level Cleveland Center
Tue 07:03:48 PM 41.6081 -78.7725 98° East 510 587 37,000 -200 Level Cleveland Center
Tue 07:04:48 PM 41.5881 -78.5814 99° East 510 587 36,600 -750 Descending Cleveland Center
Tue 07:06:28 PM 41.5492 -78.2722 99° East 528 608 35,000 -1,585 Descending New York Center
Tue 07:07:27 PM 41.5258 -78.0783 100° East 528 608 32,400 -1,983 Descending New York Center
Tue 07:08:29 PM 41.5000 -77.8844 101° East 528 608 31,000 -683 Descending New York Center
Tue 07:09:30 PM 41.4719 -77.6903 100° East 533 613 31,000 -151 Level New York Center
Tue 07:10:28 PM 41.4439 -77.4881 101° East 538 619 30,700 -1,100 Descending New York Center
Tue 07:11:30 PM 41.4136 -77.2831 102° East 529 609 28,800 -1,261 Descending New York Center
Tue 07:12:27 PM 41.3872 -77.1144 101° East 515 593 28,200 -559 Descending New York Center
Tue 07:13:28 PM 41.3611 -76.9378 103° East 500 575 27,700 -492 Descending New York Center
Tue 07:14:29 PM 41.3308 -76.7608 109° East 495 570 27,200 -958 Descending New York Center
Tue 07:15:27 PM 41.2872 -76.5886 111° Southeast 495 570 25,800 -1,815 Descending New York Center
Tue 07:16:28 PM 41.2389 -76.4244 109° East 485 558 23,600 -2,182 Descending New York Center
Tue 07:17:28 PM 41.1967 -76.2611 109° East 480 552 21,400 -2,132 Descending New York Center
Tue 07:18:29 PM 41.1558 -76.1033 109° East 468 539 19,300 -2,067 Descending New York Center
Tue 07:19:27 PM 41.1167 -75.9542 110° East 440 506 17,300 -2,017 Descending New York Center
Tue 07:20:28 PM 41.0733 -75.7967 111° Southeast 420 483 15,300 -1,672 Descending New York Center
Tue 07:21:29 PM 41.0336 -75.6564 109° East 414 476 13,900 -1,140 Descending New York Center
Tue 07:22:29 PM 41.0011 -75.5331 111° Southeast 409 471 13,000 -559 Descending New York Center
Tue 07:23:27 PM 40.9644 -75.4067 111° Southeast 379 436 12,800 -756 Descending New York Center
Tue 07:24:28 PM 40.9314 -75.2919 110° East 346 398 11,500 -1,426 Descending New York Center
Tue 07:25:29 PM 40.8983 -75.1717 111° Southeast 328 377 9,900 -1,339 Descending New York Center
Tue 07:26:29 PM 40.8669 -75.0625 95° East 318 366 8,800 -1,190 Descending New York Center
Tue 07:27:30 PM 40.8600 -74.9633 53° Northeast 282 325 7,500 -915 Descending New York Center
Tue 07:28:27 PM 40.9067 -74.8811 54° Northeast 250 288 7,000 -252 Descending New York Center
Tue 07:29:29 PM 40.9467 -74.8094 52° Northeast 258 297 7,000  Level New York Center
Tue 07:30:29 PM 40.9975 -74.7244 102° East 270 311 7,000 -559 Level New York Center
Tue 07:31:27 PM 40.9856 -74.6469 162° South 222 255 5,900 -942 Descending New York Center
Tue 07:32:30 PM 40.9094 -74.6150 176° South 212 244 5,100 -450 Descending New York Center
Tue 07:33:27 PM 40.8472 -74.6086 175° South 253 291 5,000  Descending New York Center
Tue 07:34:24 PM 40.7667 -74.6000 169° South 260 299 5,100  Climbing New York TRACON
Tue 07:35:24 PM 40.7000 -74.5833 180° South 264 304 5,000 -50 Descending New York TRACON
Tue 07:36:24 PM 40.6333 -74.5833 169° South 241 277 5,000 -150 Level New York TRACON
Tue 07:37:24 PM 40.5667 -74.5667 169° South 236 272 4,700 -500 Descending New York TRACON
Tue 07:38:24 PM 40.5000 -74.5500 143° Southeast 235 270 4,000 -650 Descending New York TRACON
Tue 07:39:24 PM 40.4500 -74.5000 123° Southeast 231 266 3,400 -500 Descending New York TRACON
Tue 07:40:24 PM 40.4167 -74.4333 62° Northeast 223 257 3,000 -200 Descending New York TRACON
Tue 07:41:24 PM 40.4500 -74.3500 49° Northeast 220 253 3,000  Level New York TRACON
Tue 07:42:24 PM 40.4833 -74.3000 27° Northeast 205 236 3,000  Level New York TRACON
Tue 07:43:23 PM 40.5333 -74.2667 21° North 172 198 3,000 -303 Level New York TRACON
Tue 07:44:23 PM 40.5667 -74.2500 21° North 171 197 2,400 -600 Descending New York TRACON

Login

Don't have an account? Register now (free) for customized features, flight alerts, and more!